sensor_id;sensor_type;location;lat;lon;timestamp;P1;durP1;ratioP1;P2;durP2;ratioP2
17488;SDS011;8861;52.644;4.734;2023-03-01T00:01:55;27.93;;;17.80;;
17488;SDS011;8861;52.644;4.734;2023-03-01T00:04:22;29.80;;;18.17;;
17488;SDS011;8861;52.644;4.734;2023-03-01T00:06:49;29.10;;;18.27;;
17488;SDS011;8861;52.644;4.734;2023-03-01T00:09:16;29.77;;;18.60;;
17488;SDS011;8861;52.644;4.734;2023-03-01T00:11:43;30.50;;;18.80;;
17488;SDS011;8861;52.644;4.734;2023-03-01T00:14:10;30.47;;;18.93;;
17488;SDS011;8861;52.644;4.734;2023-03-01T00:16:39;30.67;;;19.07;;
17488;SDS011;8861;52.644;4.734;2023-03-01T00:19:08;28.00;;;17.77;;
17488;SDS011;8861;52.644;4.734;2023-03-01T00:21:38;30.53;;;18.67;;
17488;SDS011;8861;52.644;4.734;2023-03-01T00:24:05;28.63;;;18.27;;
17488;SDS011;8861;52.644;4.734;2023-03-01T00:26:32;31.97;;;19.00;;
17488;SDS011;8861;52.644;4.734;2023-03-01T00:28:59;30.83;;;19.03;;
17488;SDS011;8861;52.644;4.734;2023-03-01T00:31:27;30.87;;;18.47;;
17488;SDS011;8861;52.644;4.734;2023-03-01T00:33:57;29.50;;;18.57;;
17488;SDS011;8861;52.644;4.734;2023-03-01T00:36:26;31.70;;;19.53;;
17488;SDS011;8861;52.644;4.734;2023-03-01T00:38:54;30.30;;;19.20;;
17488;SDS011;8861;52.644;4.734;2023-03-01T00:41:22;32.10;;;18.73;;
17488;SDS011;8861;52.644;4.734;2023-03-01T00:43:51;30.30;;;18.70;;
17488;SDS011;8861;52.644;4.734;2023-03-01T00:46:19;31.90;;;19.67;;
17488;SDS011;8861;52.644;4.734;2023-03-01T00:48:48;31.17;;;19.03;;
17488;SDS011;8861;52.644;4.734;2023-03-01T00:51:18;32.00;;;19.43;;
17488;SDS011;8861;52.644;4.734;2023-03-01T00:53:46;31.60;;;19.60;;
17488;SDS011;8861;52.644;4.734;2023-03-01T00:56:16;30.80;;;18.70;;
17488;SDS011;8861;52.644;4.734;2023-03-01T00:58:43;33.03;;;20.13;;
17488;SDS011;8861;52.644;4.734;2023-03-01T01:01:12;32.07;;;19.67;;
17488;SDS011;8861;52.644;4.734;2023-03-01T01:03:44;32.30;;;19.63;;
17488;SDS011;8861;52.644;4.734;2023-03-01T01:06:18;31.53;;;19.30;;
17488;SDS011;8861;52.644;4.734;2023-03-01T01:08:46;30.90;;;18.77;;
17488;SDS011;8861;52.644;4.734;2023-03-01T01:11:14;30.50;;;18.97;;
17488;SDS011;8861;52.644;4.734;2023-03-01T01:13:41;31.27;;;18.87;;
17488;SDS011;8861;52.644;4.734;2023-03-01T01:16:09;30.73;;;18.73;;
17488;SDS011;8861;52.644;4.734;2023-03-01T01:18:36;32.90;;;19.53;;
17488;SDS011;8861;52.644;4.734;2023-03-01T01:21:04;32.73;;;19.53;;
17488;SDS011;8861;52.644;4.734;2023-03-01T01:23:34;29.93;;;18.97;;
17488;SDS011;8861;52.644;4.734;2023-03-01T01:26:04;34.53;;;20.23;;
17488;SDS011;8861;52.644;4.734;2023-03-01T01:28:32;33.83;;;20.47;;
17488;SDS011;8861;52.644;4.734;2023-03-01T01:30:59;28.67;;;18.17;;
17488;SDS011;8861;52.644;4.734;2023-03-01T01:33:26;30.43;;;18.37;;
17488;SDS011;8861;52.644;4.734;2023-03-01T01:35:53;27.77;;;17.83;;
17488;SDS011;8861;52.644;4.734;2023-03-01T01:38:20;27.17;;;17.23;;
17488;SDS011;8861;52.644;4.734;2023-03-01T01:40:49;26.63;;;16.87;;
17488;SDS011;8861;52.644;4.734;2023-03-01T01:43:18;25.47;;;16.43;;
17488;SDS011;8861;52.644;4.734;2023-03-01T01:45:47;26.87;;;17.57;;
17488;SDS011;8861;52.644;4.734;2023-03-01T01:48:16;26.37;;;17.13;;
17488;SDS011;8861;52.644;4.734;2023-03-01T01:50:47;28.07;;;18.03;;
17488;SDS011;8861;52.644;4.734;2023-03-01T01:53:21;25.93;;;17.20;;
17488;SDS011;8861;52.644;4.734;2023-03-01T01:55:50;28.43;;;17.43;;
17488;SDS011;8861;52.644;4.734;2023-03-01T01:58:22;27.73;;;17.23;;
17488;SDS011;8861;52.644;4.734;2023-03-01T02:00:52;30.93;;;19.27;;
17488;SDS011;8861;52.644;4.734;2023-03-01T02:03:20;32.13;;;19.80;;
17488;SDS011;8861;52.644;4.734;2023-03-01T02:05:51;28.60;;;17.70;;
17488;SDS011;8861;52.644;4.734;2023-03-01T02:08:24;28.83;;;18.20;;
17488;SDS011;8861;52.644;4.734;2023-03-01T02:10:56;31.23;;;18.17;;
17488;SDS011;8861;52.644;4.734;2023-03-01T02:13:24;29.40;;;18.13;;
17488;SDS011;8861;52.644;4.734;2023-03-01T02:15:52;28.93;;;18.33;;
17488;SDS011;8861;52.644;4.734;2023-03-01T02:18:20;30.93;;;19.00;;
17488;SDS011;8861;52.644;4.734;2023-03-01T02:20:52;30.00;;;18.03;;
17488;SDS011;8861;52.644;4.734;2023-03-01T02:23:29;29.03;;;17.73;;
17488;SDS011;8861;52.644;4.734;2023-03-01T02:25:59;31.13;;;18.60;;
17488;SDS011;8861;52.644;4.734;2023-03-01T02:28:31;27.90;;;17.20;;
17488;SDS011;8861;52.644;4.734;2023-03-01T02:30:59;29.63;;;18.03;;
17488;SDS011;8861;52.644;4.734;2023-03-01T02:33:45;29.27;;;17.83;;
17488;SDS011;8861;52.644;4.734;2023-03-01T02:36:14;28.60;;;18.00;;
17488;SDS011;8861;52.644;4.734;2023-03-01T02:38:43;30.00;;;18.10;;
17488;SDS011;8861;52.644;4.734;2023-03-01T02:41:11;32.33;;;19.07;;
17488;SDS011;8861;52.644;4.734;2023-03-01T02:43:46;31.97;;;18.50;;
17488;SDS011;8861;52.644;4.734;2023-03-01T02:46:15;29.33;;;17.67;;
17488;SDS011;8861;52.644;4.734;2023-03-01T02:48:45;30.50;;;17.97;;
17488;SDS011;8861;52.644;4.734;2023-03-01T02:51:18;29.90;;;18.10;;
17488;SDS011;8861;52.644;4.734;2023-03-01T02:54:01;32.23;;;18.47;;
17488;SDS011;8861;52.644;4.734;2023-03-01T02:56:36;31.03;;;18.20;;
17488;SDS011;8861;52.644;4.734;2023-03-01T02:59:05;31.30;;;18.77;;
17488;SDS011;8861;52.644;4.734;2023-03-01T03:01:32;29.43;;;18.07;;
17488;SDS011;8861;52.644;4.734;2023-03-01T03:04:05;29.07;;;17.53;;
17488;SDS011;8861;52.644;4.734;2023-03-01T03:06:34;29.27;;;17.90;;
17488;SDS011;8861;52.644;4.734;2023-03-01T03:09:02;29.37;;;17.90;;
17488;SDS011;8861;52.644;4.734;2023-03-01T03:11:30;29.03;;;17.40;;
17488;SDS011;8861;52.644;4.734;2023-03-01T03:13:57;30.63;;;17.63;;
17488;SDS011;8861;52.644;4.734;2023-03-01T03:16:25;30.07;;;17.57;;
17488;SDS011;8861;52.644;4.734;2023-03-01T03:18:54;32.83;;;18.50;;
17488;SDS011;8861;52.644;4.734;2023-03-01T03:21:30;28.67;;;17.33;;
17488;SDS011;8861;52.644;4.734;2023-03-01T03:23:57;29.73;;;17.13;;
17488;SDS011;8861;52.644;4.734;2023-03-01T03:26:25;31.00;;;17.90;;
17488;SDS011;8861;52.644;4.734;2023-03-01T03:28:52;30.03;;;17.87;;
17488;SDS011;8861;52.644;4.734;2023-03-01T03:31:19;29.30;;;18.27;;
17488;SDS011;8861;52.644;4.734;2023-03-01T03:33:48;30.00;;;17.60;;
17488;SDS011;8861;52.644;4.734;2023-03-01T03:36:15;28.50;;;17.10;;
17488;SDS011;8861;52.644;4.734;2023-03-01T03:38:43;28.97;;;17.67;;
17488;SDS011;8861;52.644;4.734;2023-03-01T03:41:11;32.60;;;19.43;;
17488;SDS011;8861;52.644;4.734;2023-03-01T03:43:39;32.03;;;18.60;;
17488;SDS011;8861;52.644;4.734;2023-03-01T03:46:08;32.30;;;18.73;;
17488;SDS011;8861;52.644;4.734;2023-03-01T03:48:37;32.67;;;18.47;;
17488;SDS011;8861;52.644;4.734;2023-03-01T03:51:08;29.73;;;17.30;;
17488;SDS011;8861;52.644;4.734;2023-03-01T03:53:36;30.03;;;17.93;;
17488;SDS011;8861;52.644;4.734;2023-03-01T03:56:04;29.23;;;17.80;;
17488;SDS011;8861;52.644;4.734;2023-03-01T03:58:32;26.53;;;16.10;;
17488;SDS011;8861;52.644;4.734;2023-03-01T04:00:59;28.67;;;17.63;;
17488;SDS011;8861;52.644;4.734;2023-03-01T04:03:27;26.73;;;16.40;;
17488;SDS011;8861;52.644;4.734;2023-03-01T04:05:57;27.93;;;17.20;;
17488;SDS011;8861;52.644;4.734;2023-03-01T04:08:26;25.73;;;16.17;;
17488;SDS011;8861;52.644;4.734;2023-03-01T04:10:56;25.53;;;16.13;;
17488;SDS011;8861;52.644;4.734;2023-03-01T04:13:25;26.43;;;16.30;;
17488;SDS011;8861;52.644;4.734;2023-03-01T04:15:53;23.03;;;15.10;;
17488;SDS011;8861;52.644;4.734;2023-03-01T04:18:21;21.37;;;14.30;;
17488;SDS011;8861;52.644;4.734;2023-03-01T04:20:50;21.50;;;14.43;;
17488;SDS011;8861;52.644;4.734;2023-03-01T04:23:20;23.73;;;15.37;;
17488;SDS011;8861;52.644;4.734;2023-03-01T04:25:49;21.87;;;14.27;;
17488;SDS011;8861;52.644;4.734;2023-03-01T04:28:19;24.27;;;15.53;;
17488;SDS011;8861;52.644;4.734;2023-03-01T04:30:49;21.80;;;14.27;;
17488;SDS011;8861;52.644;4.734;2023-03-01T04:33:16;22.80;;;14.80;;
17488;SDS011;8861;52.644;4.734;2023-03-01T04:35:45;22.33;;;14.53;;
17488;SDS011;8861;52.644;4.734;2023-03-01T04:38:14;24.33;;;16.13;;
17488;SDS011;8861;52.644;4.734;2023-03-01T04:40:42;24.43;;;15.63;;
17488;SDS011;8861;52.644;4.734;2023-03-01T04:43:10;24.30;;;15.17;;
17488;SDS011;8861;52.644;4.734;2023-03-01T04:45:39;24.90;;;15.87;;
17488;SDS011;8861;52.644;4.734;2023-03-01T04:48:06;26.60;;;16.33;;
17488;SDS011;8861;52.644;4.734;2023-03-01T04:50:34;28.77;;;17.53;;
17488;SDS011;8861;52.644;4.734;2023-03-01T04:53:01;29.17;;;17.43;;
17488;SDS011;8861;52.644;4.734;2023-03-01T04:55:29;30.07;;;18.77;;
17488;SDS011;8861;52.644;4.734;2023-03-01T04:57:56;28.33;;;17.17;;
17488;SDS011;8861;52.644;4.734;2023-03-01T05:00:25;28.73;;;17.67;;
17488;SDS011;8861;52.644;4.734;2023-03-01T05:02:52;30.93;;;17.83;;
17488;SDS011;8861;52.644;4.734;2023-03-01T05:05:21;30.33;;;17.90;;
17488;SDS011;8861;52.644;4.734;2023-03-01T05:07:51;32.10;;;18.80;;
17488;SDS011;8861;52.644;4.734;2023-03-01T05:10:22;31.27;;;18.70;;
17488;SDS011;8861;52.644;4.734;2023-03-01T05:12:49;30.73;;;18.70;;
17488;SDS011;8861;52.644;4.734;2023-03-01T05:15:17;31.57;;;18.97;;
17488;SDS011;8861;52.644;4.734;2023-03-01T05:17:48;30.80;;;18.17;;
17488;SDS011;8861;52.644;4.734;2023-03-01T05:20:15;31.60;;;19.13;;
17488;SDS011;8861;52.644;4.734;2023-03-01T05:22:42;29.40;;;17.87;;
17488;SDS011;8861;52.644;4.734;2023-03-01T05:25:09;30.23;;;17.33;;
17488;SDS011;8861;52.644;4.734;2023-03-01T05:27:39;30.07;;;17.70;;
17488;SDS011;8861;52.644;4.734;2023-03-01T05:30:06;29.83;;;17.47;;
17488;SDS011;8861;52.644;4.734;2023-03-01T05:32:42;30.87;;;18.73;;
17488;SDS011;8861;52.644;4.734;2023-03-01T05:35:12;32.80;;;19.23;;
17488;SDS011;8861;52.644;4.734;2023-03-01T05:37:41;34.27;;;19.80;;
17488;SDS011;8861;52.644;4.734;2023-03-01T05:40:10;34.33;;;19.47;;
17488;SDS011;8861;52.644;4.734;2023-03-01T05:42:41;32.40;;;18.90;;
17488;SDS011;8861;52.644;4.734;2023-03-01T05:45:12;31.60;;;19.23;;
17488;SDS011;8861;52.644;4.734;2023-03-01T05:47:40;30.53;;;18.30;;
17488;SDS011;8861;52.644;4.734;2023-03-01T05:50:12;32.40;;;18.67;;
17488;SDS011;8861;52.644;4.734;2023-03-01T05:52:43;35.93;;;19.70;;
17488;SDS011;8861;52.644;4.734;2023-03-01T05:55:11;37.33;;;20.57;;
17488;SDS011;8861;52.644;4.734;2023-03-01T05:57:38;38.77;;;20.40;;
17488;SDS011;8861;52.644;4.734;2023-03-01T06:00:06;37.57;;;20.53;;
17488;SDS011;8861;52.644;4.734;2023-03-01T06:02:34;38.90;;;21.07;;
17488;SDS011;8861;52.644;4.734;2023-03-01T06:05:01;38.37;;;21.07;;
17488;SDS011;8861;52.644;4.734;2023-03-01T06:07:30;40.03;;;21.67;;
17488;SDS011;8861;52.644;4.734;2023-03-01T06:09:57;39.53;;;20.70;;
17488;SDS011;8861;52.644;4.734;2023-03-01T06:12:24;42.43;;;21.73;;
17488;SDS011;8861;52.644;4.734;2023-03-01T06:14:51;40.43;;;21.53;;
17488;SDS011;8861;52.644;4.734;2023-03-01T06:17:18;41.40;;;21.53;;
17488;SDS011;8861;52.644;4.734;2023-03-01T06:19:46;41.60;;;22.73;;
17488;SDS011;8861;52.644;4.734;2023-03-01T06:22:13;41.13;;;22.30;;
17488;SDS011;8861;52.644;4.734;2023-03-01T06:24:41;39.03;;;21.60;;
17488;SDS011;8861;52.644;4.734;2023-03-01T06:27:08;41.43;;;22.43;;
17488;SDS011;8861;52.644;4.734;2023-03-01T06:29:35;40.90;;;21.37;;
17488;SDS011;8861;52.644;4.734;2023-03-01T06:32:02;37.93;;;22.07;;
17488;SDS011;8861;52.644;4.734;2023-03-01T06:34:30;39.47;;;21.87;;
17488;SDS011;8861;52.644;4.734;2023-03-01T06:36:57;38.00;;;21.53;;
17488;SDS011;8861;52.644;4.734;2023-03-01T06:39:24;39.07;;;21.87;;
17488;SDS011;8861;52.644;4.734;2023-03-01T06:41:55;38.03;;;21.07;;
17488;SDS011;8861;52.644;4.734;2023-03-01T06:44:22;38.20;;;21.80;;
17488;SDS011;8861;52.644;4.734;2023-03-01T06:46:49;40.00;;;21.43;;
17488;SDS011;8861;52.644;4.734;2023-03-01T06:49:16;39.57;;;21.37;;
17488;SDS011;8861;52.644;4.734;2023-03-01T06:51:43;39.97;;;21.20;;
17488;SDS011;8861;52.644;4.734;2023-03-01T06:54:10;37.37;;;20.90;;
17488;SDS011;8861;52.644;4.734;2023-03-01T06:56:37;37.47;;;20.57;;
17488;SDS011;8861;52.644;4.734;2023-03-01T06:59:05;39.43;;;21.67;;
17488;SDS011;8861;52.644;4.734;2023-03-01T07:01:32;38.83;;;21.57;;
17488;SDS011;8861;52.644;4.734;2023-03-01T07:03:59;37.90;;;20.83;;
17488;SDS011;8861;52.644;4.734;2023-03-01T07:06:26;36.77;;;20.10;;
17488;SDS011;8861;52.644;4.734;2023-03-01T07:08:53;39.67;;;21.57;;
17488;SDS011;8861;52.644;4.734;2023-03-01T07:11:20;39.63;;;22.60;;
17488;SDS011;8861;52.644;4.734;2023-03-01T07:13:48;40.50;;;21.67;;
17488;SDS011;8861;52.644;4.734;2023-03-01T07:16:16;38.17;;;21.40;;
17488;SDS011;8861;52.644;4.734;2023-03-01T07:18:45;38.63;;;21.80;;
17488;SDS011;8861;52.644;4.734;2023-03-01T07:21:13;36.30;;;20.97;;
17488;SDS011;8861;52.644;4.734;2023-03-01T07:23:41;37.20;;;21.43;;
17488;SDS011;8861;52.644;4.734;2023-03-01T07:26:08;37.03;;;20.60;;
17488;SDS011;8861;52.644;4.734;2023-03-01T07:28:36;37.27;;;21.57;;
17488;SDS011;8861;52.644;4.734;2023-03-01T07:31:04;39.43;;;21.40;;
17488;SDS011;8861;52.644;4.734;2023-03-01T07:33:33;37.67;;;20.60;;
17488;SDS011;8861;52.644;4.734;2023-03-01T07:36:01;36.23;;;20.43;;
17488;SDS011;8861;52.644;4.734;2023-03-01T07:38:29;38.20;;;21.10;;
17488;SDS011;8861;52.644;4.734;2023-03-01T07:40:57;36.93;;;20.87;;
17488;SDS011;8861;52.644;4.734;2023-03-01T07:43:25;36.90;;;21.20;;
17488;SDS011;8861;52.644;4.734;2023-03-01T07:45:52;38.03;;;21.30;;
17488;SDS011;8861;52.644;4.734;2023-03-01T07:48:19;38.97;;;22.50;;
17488;SDS011;8861;52.644;4.734;2023-03-01T07:50:48;38.10;;;21.87;;
17488;SDS011;8861;52.644;4.734;2023-03-01T07:53:15;39.27;;;22.13;;
17488;SDS011;8861;52.644;4.734;2023-03-01T07:55:42;36.57;;;20.87;;
17488;SDS011;8861;52.644;4.734;2023-03-01T07:58:09;38.03;;;21.33;;
17488;SDS011;8861;52.644;4.734;2023-03-01T08:00:36;34.97;;;20.50;;
17488;SDS011;8861;52.644;4.734;2023-03-01T08:03:03;36.43;;;20.37;;
17488;SDS011;8861;52.644;4.734;2023-03-01T08:05:30;37.20;;;21.00;;
17488;SDS011;8861;52.644;4.734;2023-03-01T08:08:00;39.00;;;21.93;;
17488;SDS011;8861;52.644;4.734;2023-03-01T08:10:27;36.77;;;22.13;;
17488;SDS011;8861;52.644;4.734;2023-03-01T08:12:54;39.93;;;22.73;;
17488;SDS011;8861;52.644;4.734;2023-03-01T08:15:21;39.93;;;23.43;;
17488;SDS011;8861;52.644;4.734;2023-03-01T08:17:48;40.53;;;22.73;;
17488;SDS011;8861;52.644;4.734;2023-03-01T08:20:16;38.63;;;22.37;;
17488;SDS011;8861;52.644;4.734;2023-03-01T08:22:43;36.27;;;21.50;;
17488;SDS011;8861;52.644;4.734;2023-03-01T08:25:11;35.77;;;20.77;;
17488;SDS011;8861;52.644;4.734;2023-03-01T08:27:38;38.87;;;22.77;;
17488;SDS011;8861;52.644;4.734;2023-03-01T08:30:06;38.20;;;21.60;;
17488;SDS011;8861;52.644;4.734;2023-03-01T08:32:37;37.00;;;21.37;;
17488;SDS011;8861;52.644;4.734;2023-03-01T08:35:04;39.53;;;22.20;;
17488;SDS011;8861;52.644;4.734;2023-03-01T08:37:32;37.60;;;21.27;;
17488;SDS011;8861;52.644;4.734;2023-03-01T08:39:59;40.23;;;22.20;;
17488;SDS011;8861;52.644;4.734;2023-03-01T08:42:27;38.20;;;21.93;;
17488;SDS011;8861;52.644;4.734;2023-03-01T08:44:54;38.77;;;20.87;;
17488;SDS011;8861;52.644;4.734;2023-03-01T08:47:21;38.40;;;21.53;;
17488;SDS011;8861;52.644;4.734;2023-03-01T08:49:49;39.13;;;21.37;;
17488;SDS011;8861;52.644;4.734;2023-03-01T08:52:16;47.00;;;23.60;;
17488;SDS011;8861;52.644;4.734;2023-03-01T08:54:43;38.97;;;21.77;;
17488;SDS011;8861;52.644;4.734;2023-03-01T08:57:10;44.33;;;23.37;;
17488;SDS011;8861;52.644;4.734;2023-03-01T08:59:39;36.83;;;21.17;;
17488;SDS011;8861;52.644;4.734;2023-03-01T09:02:10;49.53;;;25.03;;
17488;SDS011;8861;52.644;4.734;2023-03-01T09:04:39;47.67;;;27.10;;
17488;SDS011;8861;52.644;4.734;2023-03-01T09:07:06;42.50;;;23.63;;
17488;SDS011;8861;52.644;4.734;2023-03-01T09:09:34;42.37;;;24.70;;
17488;SDS011;8861;52.644;4.734;2023-03-01T09:12:01;36.93;;;22.20;;
17488;SDS011;8861;52.644;4.734;2023-03-01T09:14:29;45.50;;;26.17;;
17488;SDS011;8861;52.644;4.734;2023-03-01T09:16:58;35.73;;;21.50;;
17488;SDS011;8861;52.644;4.734;2023-03-01T09:19:29;35.93;;;20.93;;
17488;SDS011;8861;52.644;4.734;2023-03-01T09:22:00;49.37;;;26.57;;
17488;SDS011;8861;52.644;4.734;2023-03-01T09:24:27;50.47;;;28.13;;
17488;SDS011;8861;52.644;4.734;2023-03-01T09:26:54;46.33;;;26.33;;
17488;SDS011;8861;52.644;4.734;2023-03-01T09:29:33;54.37;;;29.13;;
17488;SDS011;8861;52.644;4.734;2023-03-01T09:32:02;54.77;;;29.93;;
17488;SDS011;8861;52.644;4.734;2023-03-01T09:34:29;49.47;;;28.07;;
17488;SDS011;8861;52.644;4.734;2023-03-01T09:37:17;53.37;;;30.23;;
17488;SDS011;8861;52.644;4.734;2023-03-01T09:39:44;51.60;;;29.40;;
17488;SDS011;8861;52.644;4.734;2023-03-01T09:42:11;52.67;;;29.63;;
17488;SDS011;8861;52.644;4.734;2023-03-01T09:44:40;60.53;;;33.63;;
17488;SDS011;8861;52.644;4.734;2023-03-01T09:47:15;55.13;;;30.80;;
17488;SDS011;8861;52.644;4.734;2023-03-01T09:49:45;63.53;;;33.23;;
17488;SDS011;8861;52.644;4.734;2023-03-01T09:52:23;64.53;;;34.73;;
17488;SDS011;8861;52.644;4.734;2023-03-01T09:54:56;65.50;;;35.30;;
17488;SDS011;8861;52.644;4.734;2023-03-01T09:57:26;55.63;;;32.37;;
17488;SDS011;8861;52.644;4.734;2023-03-01T10:00:08;64.50;;;36.73;;
17488;SDS011;8861;52.644;4.734;2023-03-01T10:02:45;65.20;;;37.20;;
17488;SDS011;8861;52.644;4.734;2023-03-01T10:05:33;60.90;;;34.83;;
17488;SDS011;8861;52.644;4.734;2023-03-01T10:08:24;60.40;;;35.57;;
17488;SDS011;8861;52.644;4.734;2023-03-01T10:11:04;61.37;;;33.60;;
17488;SDS011;8861;52.644;4.734;2023-03-01T10:13:43;62.93;;;35.97;;
17488;SDS011;8861;52.644;4.734;2023-03-01T10:16:19;63.33;;;36.70;;
17488;SDS011;8861;52.644;4.734;2023-03-01T10:18:53;61.80;;;35.90;;
17488;SDS011;8861;52.644;4.734;2023-03-01T10:21:26;65.00;;;37.57;;
17488;SDS011;8861;52.644;4.734;2023-03-01T10:23:57;67.33;;;39.70;;
17488;SDS011;8861;52.644;4.734;2023-03-01T10:26:38;62.07;;;36.90;;
17488;SDS011;8861;52.644;4.734;2023-03-01T10:29:13;58.90;;;36.90;;
17488;SDS011;8861;52.644;4.734;2023-03-01T10:31:43;67.90;;;36.97;;
17488;SDS011;8861;52.644;4.734;2023-03-01T10:34:14;65.33;;;36.87;;
17488;SDS011;8861;52.644;4.734;2023-03-01T10:36:43;64.60;;;37.27;;
17488;SDS011;8861;52.644;4.734;2023-03-01T10:39:15;64.60;;;37.97;;
17488;SDS011;8861;52.644;4.734;2023-03-01T10:41:56;67.67;;;40.37;;
17488;SDS011;8861;52.644;4.734;2023-03-01T10:47:15;65.03;;;37.93;;
17488;SDS011;8861;52.644;4.734;2023-03-01T10:49:57;64.00;;;38.03;;
17488;SDS011;8861;52.644;4.734;2023-03-01T10:52:27;69.40;;;40.23;;
17488;SDS011;8861;52.644;4.734;2023-03-01T10:54:57;69.10;;;41.17;;
17488;SDS011;8861;52.644;4.734;2023-03-01T10:57:30;72.57;;;42.00;;
17488;SDS011;8861;52.644;4.734;2023-03-01T11:00:10;73.20;;;39.60;;
17488;SDS011;8861;52.644;4.734;2023-03-01T11:02:51;62.17;;;36.80;;
17488;SDS011;8861;52.644;4.734;2023-03-01T11:05:31;59.10;;;35.47;;
17488;SDS011;8861;52.644;4.734;2023-03-01T11:07:59;53.20;;;33.40;;
17488;SDS011;8861;52.644;4.734;2023-03-01T11:10:29;60.90;;;36.43;;
17488;SDS011;8861;52.644;4.734;2023-03-01T11:13:07;54.10;;;34.43;;
17488;SDS011;8861;52.644;4.734;2023-03-01T11:15:40;56.80;;;34.13;;
17488;SDS011;8861;52.644;4.734;2023-03-01T11:18:18;58.53;;;36.37;;
17488;SDS011;8861;52.644;4.734;2023-03-01T11:20:48;57.33;;;34.83;;
17488;SDS011;8861;52.644;4.734;2023-03-01T11:23:18;81.10;;;40.53;;
17488;SDS011;8861;52.644;4.734;2023-03-01T11:25:47;72.10;;;36.07;;
17488;SDS011;8861;52.644;4.734;2023-03-01T11:28:19;58.50;;;33.47;;
17488;SDS011;8861;52.644;4.734;2023-03-01T11:30:48;57.07;;;34.47;;
17488;SDS011;8861;52.644;4.734;2023-03-01T11:33:24;48.93;;;31.57;;
17488;SDS011;8861;52.644;4.734;2023-03-01T11:36:03;45.87;;;29.77;;
17488;SDS011;8861;52.644;4.734;2023-03-01T11:38:34;48.80;;;29.57;;
17488;SDS011;8861;52.644;4.734;2023-03-01T11:41:05;51.80;;;30.70;;
17488;SDS011;8861;52.644;4.734;2023-03-01T11:43:36;53.37;;;31.90;;
17488;SDS011;8861;52.644;4.734;2023-03-01T11:46:28;45.13;;;28.10;;
17488;SDS011;8861;52.644;4.734;2023-03-01T11:49:19;41.73;;;26.67;;
17488;SDS011;8861;52.644;4.734;2023-03-01T11:52:02;41.87;;;26.10;;
17488;SDS011;8861;52.644;4.734;2023-03-01T11:54:42;43.47;;;27.53;;
17488;SDS011;8861;52.644;4.734;2023-03-01T11:57:26;68.83;;;32.90;;
17488;SDS011;8861;52.644;4.734;2023-03-01T12:00:07;80.17;;;34.10;;
17488;SDS011;8861;52.644;4.734;2023-03-01T12:02:48;64.57;;;33.73;;
17488;SDS011;8861;52.644;4.734;2023-03-01T12:08:45;60.57;;;35.83;;
17488;SDS011;8861;52.644;4.734;2023-03-01T12:11:22;57.03;;;34.17;;
17488;SDS011;8861;52.644;4.734;2023-03-01T12:14:14;61.30;;;35.60;;
17488;SDS011;8861;52.644;4.734;2023-03-01T12:17:18;58.93;;;36.17;;
17488;SDS011;8861;52.644;4.734;2023-03-01T12:20:00;58.37;;;36.77;;
17488;SDS011;8861;52.644;4.734;2023-03-01T12:22:41;54.43;;;33.30;;
17488;SDS011;8861;52.644;4.734;2023-03-01T12:25:22;59.33;;;36.20;;
17488;SDS011;8861;52.644;4.734;2023-03-01T12:28:04;54.93;;;33.67;;
17488;SDS011;8861;52.644;4.734;2023-03-01T12:30:52;55.90;;;35.07;;
17488;SDS011;8861;52.644;4.734;2023-03-01T12:33:32;59.87;;;34.83;;
17488;SDS011;8861;52.644;4.734;2023-03-01T12:36:20;57.57;;;35.00;;
17488;SDS011;8861;52.644;4.734;2023-03-01T12:38:59;54.23;;;33.93;;
17488;SDS011;8861;52.644;4.734;2023-03-01T12:41:47;54.90;;;33.20;;
17488;SDS011;8861;52.644;4.734;2023-03-01T12:44:29;57.90;;;34.07;;
17488;SDS011;8861;52.644;4.734;2023-03-01T12:47:05;53.50;;;32.30;;
17488;SDS011;8861;52.644;4.734;2023-03-01T12:49:42;50.73;;;30.03;;
17488;SDS011;8861;52.644;4.734;2023-03-01T12:52:15;50.20;;;30.33;;
17488;SDS011;8861;52.644;4.734;2023-03-01T12:54:47;50.97;;;31.07;;
17488;SDS011;8861;52.644;4.734;2023-03-01T12:57:21;51.90;;;32.00;;
17488;SDS011;8861;52.644;4.734;2023-03-01T13:00:03;48.10;;;29.63;;
17488;SDS011;8861;52.644;4.734;2023-03-01T13:02:44;47.70;;;29.63;;
17488;SDS011;8861;52.644;4.734;2023-03-01T13:05:22;53.07;;;32.10;;
17488;SDS011;8861;52.644;4.734;2023-03-01T13:07:57;48.00;;;29.20;;
17488;SDS011;8861;52.644;4.734;2023-03-01T13:10:30;44.87;;;27.67;;
17488;SDS011;8861;52.644;4.734;2023-03-01T13:13:08;41.20;;;25.77;;
17488;SDS011;8861;52.644;4.734;2023-03-01T13:15:40;46.20;;;28.80;;
17488;SDS011;8861;52.644;4.734;2023-03-01T13:20:58;49.43;;;29.57;;
17488;SDS011;8861;52.644;4.734;2023-03-01T13:23:30;44.80;;;28.67;;
17488;SDS011;8861;52.644;4.734;2023-03-01T13:26:04;44.47;;;28.20;;
17488;SDS011;8861;52.644;4.734;2023-03-01T13:37:18;49.63;;;30.13;;
17488;SDS011;8861;52.644;4.734;2023-03-01T13:39:47;47.83;;;29.73;;
17488;SDS011;8861;52.644;4.734;2023-03-01T13:45:23;46.73;;;28.87;;
17488;SDS011;8861;52.644;4.734;2023-03-01T13:48:00;48.67;;;29.90;;
17488;SDS011;8861;52.644;4.734;2023-03-01T13:50:32;50.17;;;31.87;;
17488;SDS011;8861;52.644;4.734;2023-03-01T13:53:03;54.40;;;32.97;;
17488;SDS011;8861;52.644;4.734;2023-03-01T13:55:35;53.27;;;32.40;;
17488;SDS011;8861;52.644;4.734;2023-03-01T13:58:04;48.30;;;30.30;;
17488;SDS011;8861;52.644;4.734;2023-03-01T14:00:43;50.77;;;29.67;;
17488;SDS011;8861;52.644;4.734;2023-03-01T14:03:12;46.80;;;29.43;;
17488;SDS011;8861;52.644;4.734;2023-03-01T14:05:40;49.83;;;29.97;;
17488;SDS011;8861;52.644;4.734;2023-03-01T14:08:23;48.77;;;30.60;;
17488;SDS011;8861;52.644;4.734;2023-03-01T14:10:54;49.73;;;30.23;;
17488;SDS011;8861;52.644;4.734;2023-03-01T14:13:38;50.33;;;30.60;;
17488;SDS011;8861;52.644;4.734;2023-03-01T14:16:22;49.30;;;30.63;;
17488;SDS011;8861;52.644;4.734;2023-03-01T14:19:00;45.70;;;29.07;;
17488;SDS011;8861;52.644;4.734;2023-03-01T14:21:41;50.47;;;29.17;;
17488;SDS011;8861;52.644;4.734;2023-03-01T14:24:14;43.27;;;26.87;;
17488;SDS011;8861;52.644;4.734;2023-03-01T14:26:44;45.83;;;27.60;;
17488;SDS011;8861;52.644;4.734;2023-03-01T14:29:25;44.93;;;27.27;;
17488;SDS011;8861;52.644;4.734;2023-03-01T14:31:54;44.83;;;27.53;;
17488;SDS011;8861;52.644;4.734;2023-03-01T14:34:22;47.97;;;28.73;;
17488;SDS011;8861;52.644;4.734;2023-03-01T14:36:50;43.07;;;27.50;;
17488;SDS011;8861;52.644;4.734;2023-03-01T14:39:18;42.47;;;27.73;;
17488;SDS011;8861;52.644;4.734;2023-03-01T14:42:01;43.80;;;27.50;;
17488;SDS011;8861;52.644;4.734;2023-03-01T14:44:40;40.40;;;26.07;;
17488;SDS011;8861;52.644;4.734;2023-03-01T14:47:11;39.90;;;26.00;;
17488;SDS011;8861;52.644;4.734;2023-03-01T14:49:41;39.63;;;24.67;;
17488;SDS011;8861;52.644;4.734;2023-03-01T14:52:24;40.23;;;25.87;;
17488;SDS011;8861;52.644;4.734;2023-03-01T14:55:01;37.23;;;24.03;;
17488;SDS011;8861;52.644;4.734;2023-03-01T14:57:34;41.10;;;24.10;;
17488;SDS011;8861;52.644;4.734;2023-03-01T15:00:25;37.00;;;23.53;;
17488;SDS011;8861;52.644;4.734;2023-03-01T15:02:55;35.07;;;22.50;;
17488;SDS011;8861;52.644;4.734;2023-03-01T15:05:38;36.37;;;22.93;;
17488;SDS011;8861;52.644;4.734;2023-03-01T15:08:32;33.87;;;22.33;;
17488;SDS011;8861;52.644;4.734;2023-03-01T15:11:02;37.10;;;22.83;;
17488;SDS011;8861;52.644;4.734;2023-03-01T15:13:34;32.80;;;22.00;;
17488;SDS011;8861;52.644;4.734;2023-03-01T15:16:04;34.03;;;21.60;;
17488;SDS011;8861;52.644;4.734;2023-03-01T15:18:37;29.63;;;20.00;;